Huvudsida
METAR-TAF:

METAR-TAF

Flygplatser :

Genèves internationella flygplats

Genève, Schweiz

latitud: 46-15N, longitud: 006-08E, höjd: 420 m

Aktuellt väderrapport

Denna rapport gjordes för 30 minuter sedan, klockan 22:50 UTC
Vind 7 kt från sydväst
Temperatur 6°C
Fuktighet 81%
Tryck 1011 hPa
Sikt 10 km eller mer
Få moln på en höjd av 3000 ft
Brutna moln på en höjd av 9500 ft

METAR: LSGG 112250Z AUTO 23007KT 9999 FEW030 BKN095 06/03 Q1011 NOSIG

Tid: 00:20 (23:20 UTC)

Väderprognos

Denna rapport gjordes för 2 timmar och 55 minuter sedan, klockan 20:25 UTC
Prognos gäller från 11 kl. 21 UTC till 13 kl. 03 UTC
Vind 5 kt från väst/sydväst
Sikt 10 km eller mer
Få moln på en höjd av 4000 ft
Brutna moln på en höjd av 5000 ft

TAF: LSGG 112025Z 1121/1303 25005KT 9999 FEW040 BKN050 TX09/1214Z TN02/1206Z

Aktuella väderrapporter och prognoser från 4000 flygplatser (METAR- och TAF-rapporter).

De tillgängliga stationerna syns som gula och röda prickar på kartan.

För musen över prickarna för att se namnen på stationerna.

Klicka sedan för att få väderrapporter och prognoser.

För att ändra kartan: Klicka på de gröna knapparna med ett svart kors på för att zooma in; den gröna knappen med ett streck på för att zooma ut; eller på de gröna pilarna för angränsande kartor.


METAR-TAF: